<?xml version="1.0" encoding="utf-8"?>
<gpx xmlns:xsi="http://www.w3.org/2001/XMLSchema-instance" xmlns:xsd="http://www.w3.org/2001/XMLSchema" version="1.1" creator="Shapelink.com" xmlns="http://www.topografix.com/GPX/1/1" xmlns:gpxtpx="http://www.garmin.com/xmlschemas/TrackPointExtension/v1">
  <metadata>
    <name>Løping 5.00 km, 2012-08-17</name>
    <desc></desc>
    <author><name>Mikael Blom</name></author> 
    <time>2012-08-17T12:37:09Z</time>
  </metadata>
  <trk>
    <name>Løping 5.00 km, 2012-08-17</name>
    <trkseg>
      <trkpt lat="59.9803269" lon="17.7429575">
        <ele>28.9769</ele>
        <time>2012-08-17T12:37:09Z</time>
      </trkpt>
      <trkpt lat="59.9803606" lon="17.7431424">
        <ele>28.4962</ele>
        <time>2012-08-17T12:37:13Z</time>
      </trkpt>
      <trkpt lat="59.9803875" lon="17.7433854">
        <ele>30.4188</ele>
        <time>2012-08-17T12:37:18Z</time>
      </trkpt>
      <trkpt lat="59.9804052" lon="17.7434222">
        <ele>32.8223</ele>
        <time>2012-08-17T12:37:19Z</time>
      </trkpt>
      <trkpt lat="59.9804441" lon="17.7436765">
        <ele>33.7834</ele>
        <time>2012-08-17T12:37:25Z</time>
      </trkpt>
      <trkpt lat="59.9804766" lon="17.7439563">
        <ele>32.8223</ele>
        <time>2012-08-17T12:37:30Z</time>
      </trkpt>
      <trkpt lat="59.9804791" lon="17.7440098">
        <ele>32.8223</ele>
        <time>2012-08-17T12:37:31Z</time>
      </trkpt>
      <trkpt lat="59.9805128" lon="17.744394">
        <ele>37.1481</ele>
        <time>2012-08-17T12:37:37Z</time>
      </trkpt>
      <trkpt lat="59.9805585" lon="17.7446138">
        <ele>36.6675</ele>
        <time>2012-08-17T12:37:42Z</time>
      </trkpt>
      <trkpt lat="59.9806508" lon="17.7447297">
        <ele>39.0707</ele>
        <time>2012-08-17T12:37:46Z</time>
      </trkpt>
      <trkpt lat="59.9807583" lon="17.7447878">
        <ele>45.7999</ele>
        <time>2012-08-17T12:37:51Z</time>
      </trkpt>
      <trkpt lat="59.9808331" lon="17.7449373">
        <ele>47.2418</ele>
        <time>2012-08-17T12:37:56Z</time>
      </trkpt>
      <trkpt lat="59.9808569" lon="17.7449747">
        <ele>48.2034</ele>
        <time>2012-08-17T12:37:57Z</time>
      </trkpt>
      <trkpt lat="59.9809631" lon="17.7451753">
        <ele>49.6453</ele>
        <time>2012-08-17T12:38:03Z</time>
      </trkpt>
      <trkpt lat="59.9810366" lon="17.7453626">
        <ele>48.2034</ele>
        <time>2012-08-17T12:38:08Z</time>
      </trkpt>
      <trkpt lat="59.981112" lon="17.7456125">
        <ele>46.7612</ele>
        <time>2012-08-17T12:38:14Z</time>
      </trkpt>
      <trkpt lat="59.9811788" lon="17.7457746">
        <ele>46.7612</ele>
        <time>2012-08-17T12:38:18Z</time>
      </trkpt>
      <trkpt lat="59.9812457" lon="17.745921">
        <ele>46.7612</ele>
        <time>2012-08-17T12:38:23Z</time>
      </trkpt>
      <trkpt lat="59.9813177" lon="17.7461807">
        <ele>45.7999</ele>
        <time>2012-08-17T12:38:29Z</time>
      </trkpt>
      <trkpt lat="59.9813672" lon="17.7464685">
        <ele>43.8773</ele>
        <time>2012-08-17T12:38:35Z</time>
      </trkpt>
      <trkpt lat="59.9814151" lon="17.7466337">
        <ele>44.358</ele>
        <time>2012-08-17T12:38:39Z</time>
      </trkpt>
      <trkpt lat="59.9814627" lon="17.7468515">
        <ele>44.8386</ele>
        <time>2012-08-17T12:38:44Z</time>
      </trkpt>
      <trkpt lat="59.9814876" lon="17.7470302">
        <ele>43.8773</ele>
        <time>2012-08-17T12:38:48Z</time>
      </trkpt>
      <trkpt lat="59.9815567" lon="17.7472663">
        <ele>45.7999</ele>
        <time>2012-08-17T12:38:54Z</time>
      </trkpt>
      <trkpt lat="59.9816233" lon="17.7474015">
        <ele>48.2034</ele>
        <time>2012-08-17T12:38:59Z</time>
      </trkpt>
      <trkpt lat="59.9817349" lon="17.7474488">
        <ele>53.4905</ele>
        <time>2012-08-17T12:39:04Z</time>
      </trkpt>
      <trkpt lat="59.9819005" lon="17.7475252">
        <ele>60.7003</ele>
        <time>2012-08-17T12:39:11Z</time>
      </trkpt>
      <trkpt lat="59.9819752" lon="17.7475813">
        <ele>63.5844</ele>
        <time>2012-08-17T12:39:14Z</time>
      </trkpt>
      <trkpt lat="59.9820929" lon="17.7477739">
        <ele>68.3909</ele>
        <time>2012-08-17T12:39:21Z</time>
      </trkpt>
      <trkpt lat="59.9821928" lon="17.7478945">
        <ele>68.8716</ele>
        <time>2012-08-17T12:39:27Z</time>
      </trkpt>
      <trkpt lat="59.9822715" lon="17.748016">
        <ele>65.0264</ele>
        <time>2012-08-17T12:39:32Z</time>
      </trkpt>
      <trkpt lat="59.9823618" lon="17.7482147">
        <ele>60.2197</ele>
        <time>2012-08-17T12:39:38Z</time>
      </trkpt>
      <trkpt lat="59.9823968" lon="17.748294">
        <ele>59.2584</ele>
        <time>2012-08-17T12:39:40Z</time>
      </trkpt>
      <trkpt lat="59.9825071" lon="17.7484734">
        <ele>58.7777</ele>
        <time>2012-08-17T12:39:46Z</time>
      </trkpt>
      <trkpt lat="59.98254" lon="17.7485385">
        <ele>58.2971</ele>
        <time>2012-08-17T12:39:48Z</time>
      </trkpt>
      <trkpt lat="59.9826259" lon="17.7486769">
        <ele>58.2971</ele>
        <time>2012-08-17T12:39:53Z</time>
      </trkpt>
      <trkpt lat="59.982716" lon="17.7488154">
        <ele>60.2197</ele>
        <time>2012-08-17T12:39:57Z</time>
      </trkpt>
      <trkpt lat="59.9828254" lon="17.7489892">
        <ele>62.1423</ele>
        <time>2012-08-17T12:40:03Z</time>
      </trkpt>
      <trkpt lat="59.9828674" lon="17.7490746">
        <ele>60.7003</ele>
        <time>2012-08-17T12:40:06Z</time>
      </trkpt>
      <trkpt lat="59.9829047" lon="17.7491699">
        <ele>60.2197</ele>
        <time>2012-08-17T12:40:09Z</time>
      </trkpt>
      <trkpt lat="59.9830129" lon="17.7493716">
        <ele>61.181</ele>
        <time>2012-08-17T12:40:15Z</time>
      </trkpt>
      <trkpt lat="59.9831001" lon="17.7495281">
        <ele>60.2197</ele>
        <time>2012-08-17T12:40:20Z</time>
      </trkpt>
      <trkpt lat="59.9832055" lon="17.7498075">
        <ele>58.2971</ele>
        <time>2012-08-17T12:40:27Z</time>
      </trkpt>
      <trkpt lat="59.9833001" lon="17.7500006">
        <ele>56.3745</ele>
        <time>2012-08-17T12:40:34Z</time>
      </trkpt>
      <trkpt lat="59.9833987" lon="17.7501906">
        <ele>56.3745</ele>
        <time>2012-08-17T12:40:39Z</time>
      </trkpt>
      <trkpt lat="59.9834469" lon="17.750303">
        <ele>56.3745</ele>
        <time>2012-08-17T12:40:42Z</time>
      </trkpt>
      <trkpt lat="59.9835252" lon="17.7504983">
        <ele>55.4131</ele>
        <time>2012-08-17T12:40:47Z</time>
      </trkpt>
      <trkpt lat="59.9836013" lon="17.7506578">
        <ele>56.8551</ele>
        <time>2012-08-17T12:40:51Z</time>
      </trkpt>
      <trkpt lat="59.9836955" lon="17.7508107">
        <ele>57.8165</ele>
        <time>2012-08-17T12:40:55Z</time>
      </trkpt>
      <trkpt lat="59.9837629" lon="17.7509334">
        <ele>55.8938</ele>
        <time>2012-08-17T12:40:59Z</time>
      </trkpt>
      <trkpt lat="59.9838737" lon="17.7511292">
        <ele>54.9324</ele>
        <time>2012-08-17T12:41:05Z</time>
      </trkpt>
      <trkpt lat="59.9839422" lon="17.7512442">
        <ele>53.9712</ele>
        <time>2012-08-17T12:41:10Z</time>
      </trkpt>
      <trkpt lat="59.9839788" lon="17.7512602">
        <ele>55.4131</ele>
        <time>2012-08-17T12:41:12Z</time>
      </trkpt>
      <trkpt lat="59.9840877" lon="17.7513609">
        <ele>57.3358</ele>
        <time>2012-08-17T12:41:16Z</time>
      </trkpt>
      <trkpt lat="59.9841338" lon="17.7513714">
        <ele>57.8165</ele>
        <time>2012-08-17T12:41:18Z</time>
      </trkpt>
      <trkpt lat="59.9842182" lon="17.7514735">
        <ele>58.7777</ele>
        <time>2012-08-17T12:41:23Z</time>
      </trkpt>
      <trkpt lat="59.9843513" lon="17.7515657">
        <ele>59.7391</ele>
        <time>2012-08-17T12:41:28Z</time>
      </trkpt>
      <trkpt lat="59.9845034" lon="17.7517128">
        <ele>61.6617</ele>
        <time>2012-08-17T12:41:33Z</time>
      </trkpt>
      <trkpt lat="59.9845558" lon="17.7517658">
        <ele>61.181</ele>
        <time>2012-08-17T12:41:35Z</time>
      </trkpt>
      <trkpt lat="59.9846383" lon="17.7518534">
        <ele>63.5844</ele>
        <time>2012-08-17T12:41:38Z</time>
      </trkpt>
      <trkpt lat="59.9847306" lon="17.751974">
        <ele>61.181</ele>
        <time>2012-08-17T12:41:43Z</time>
      </trkpt>
      <trkpt lat="59.9848258" lon="17.7520978">
        <ele>60.2197</ele>
        <time>2012-08-17T12:41:48Z</time>
      </trkpt>
      <trkpt lat="59.9849378" lon="17.7522785">
        <ele>59.2584</ele>
        <time>2012-08-17T12:41:54Z</time>
      </trkpt>
      <trkpt lat="59.9850051" lon="17.7525255">
        <ele>57.8165</ele>
        <time>2012-08-17T12:42:00Z</time>
      </trkpt>
      <trkpt lat="59.9851116" lon="17.7527511">
        <ele>55.8938</ele>
        <time>2012-08-17T12:42:06Z</time>
      </trkpt>
      <trkpt lat="59.985177" lon="17.7528801">
        <ele>54.9324</ele>
        <time>2012-08-17T12:42:10Z</time>
      </trkpt>
      <trkpt lat="59.985252" lon="17.7530386">
        <ele>54.4518</ele>
        <time>2012-08-17T12:42:14Z</time>
      </trkpt>
      <trkpt lat="59.9852833" lon="17.7532017">
        <ele>54.4518</ele>
        <time>2012-08-17T12:42:18Z</time>
      </trkpt>
      <trkpt lat="59.985354" lon="17.7534199">
        <ele>53.4905</ele>
        <time>2012-08-17T12:42:23Z</time>
      </trkpt>
      <trkpt lat="59.9854224" lon="17.7536315">
        <ele>53.9712</ele>
        <time>2012-08-17T12:42:28Z</time>
      </trkpt>
      <trkpt lat="59.9855275" lon="17.7538502">
        <ele>57.8165</ele>
        <time>2012-08-17T12:42:34Z</time>
      </trkpt>
      <trkpt lat="59.9856634" lon="17.7540611">
        <ele>60.7003</ele>
        <time>2012-08-17T12:42:41Z</time>
      </trkpt>
      <trkpt lat="59.9857522" lon="17.7541933">
        <ele>62.6229</ele>
        <time>2012-08-17T12:42:46Z</time>
      </trkpt>
      <trkpt lat="59.9858458" lon="17.7543537">
        <ele>61.6617</ele>
        <time>2012-08-17T12:42:51Z</time>
      </trkpt>
      <trkpt lat="59.9859536" lon="17.7545533">
        <ele>62.1423</ele>
        <time>2012-08-17T12:42:57Z</time>
      </trkpt>
      <trkpt lat="59.9860069" lon="17.754746">
        <ele>59.7391</ele>
        <time>2012-08-17T12:43:01Z</time>
      </trkpt>
      <trkpt lat="59.9860417" lon="17.7550364">
        <ele>58.2971</ele>
        <time>2012-08-17T12:43:07Z</time>
      </trkpt>
      <trkpt lat="59.9860888" lon="17.7552821">
        <ele>56.3745</ele>
        <time>2012-08-17T12:43:12Z</time>
      </trkpt>
      <trkpt lat="59.9861365" lon="17.7554173">
        <ele>55.8938</ele>
        <time>2012-08-17T12:43:15Z</time>
      </trkpt>
      <trkpt lat="59.9861777" lon="17.7556348">
        <ele>54.4518</ele>
        <time>2012-08-17T12:43:20Z</time>
      </trkpt>
      <trkpt lat="59.9861918" lon="17.7558769">
        <ele>53.4905</ele>
        <time>2012-08-17T12:43:25Z</time>
      </trkpt>
      <trkpt lat="59.9862296" lon="17.7561086">
        <ele>53.4905</ele>
        <time>2012-08-17T12:43:30Z</time>
      </trkpt>
      <trkpt lat="59.9862867" lon="17.7563171">
        <ele>53.9712</ele>
        <time>2012-08-17T12:43:35Z</time>
      </trkpt>
      <trkpt lat="59.9863358" lon="17.7564772">
        <ele>54.9324</ele>
        <time>2012-08-17T12:43:39Z</time>
      </trkpt>
      <trkpt lat="59.9863751" lon="17.7566925">
        <ele>53.0098</ele>
        <time>2012-08-17T12:43:44Z</time>
      </trkpt>
      <trkpt lat="59.9864481" lon="17.7569001">
        <ele>53.0098</ele>
        <time>2012-08-17T12:43:49Z</time>
      </trkpt>
      <trkpt lat="59.9865167" lon="17.7571196">
        <ele>54.9324</ele>
        <time>2012-08-17T12:43:54Z</time>
      </trkpt>
      <trkpt lat="59.9865838" lon="17.7573156">
        <ele>55.4131</ele>
        <time>2012-08-17T12:43:59Z</time>
      </trkpt>
      <trkpt lat="59.9866302" lon="17.7575157">
        <ele>56.3745</ele>
        <time>2012-08-17T12:44:04Z</time>
      </trkpt>
      <trkpt lat="59.9866943" lon="17.7576774">
        <ele>56.3745</ele>
        <time>2012-08-17T12:44:08Z</time>
      </trkpt>
      <trkpt lat="59.986758" lon="17.7578385">
        <ele>54.9324</ele>
        <time>2012-08-17T12:44:12Z</time>
      </trkpt>
      <trkpt lat="59.9868217" lon="17.7579908">
        <ele>55.8938</ele>
        <time>2012-08-17T12:44:16Z</time>
      </trkpt>
      <trkpt lat="59.986915" lon="17.7581787">
        <ele>55.4131</ele>
        <time>2012-08-17T12:44:22Z</time>
      </trkpt>
      <trkpt lat="59.9869917" lon="17.7583315">
        <ele>54.4518</ele>
        <time>2012-08-17T12:44:27Z</time>
      </trkpt>
      <trkpt lat="59.9870808" lon="17.7585362">
        <ele>53.4905</ele>
        <time>2012-08-17T12:44:32Z</time>
      </trkpt>
      <trkpt lat="59.9871171" lon="17.758736">
        <ele>51.0872</ele>
        <time>2012-08-17T12:44:36Z</time>
      </trkpt>
      <trkpt lat="59.9871476" lon="17.7588621">
        <ele>49.6453</ele>
        <time>2012-08-17T12:44:39Z</time>
      </trkpt>
      <trkpt lat="59.9872216" lon="17.7590797">
        <ele>50.126</ele>
        <time>2012-08-17T12:44:44Z</time>
      </trkpt>
      <trkpt lat="59.9872546" lon="17.7591515">
        <ele>50.126</ele>
        <time>2012-08-17T12:44:46Z</time>
      </trkpt>
      <trkpt lat="59.9873033" lon="17.7593547">
        <ele>49.6453</ele>
        <time>2012-08-17T12:44:51Z</time>
      </trkpt>
      <trkpt lat="59.9873549" lon="17.7595116">
        <ele>49.1646</ele>
        <time>2012-08-17T12:44:55Z</time>
      </trkpt>
      <trkpt lat="59.9874205" lon="17.7597127">
        <ele>48.684</ele>
        <time>2012-08-17T12:45:00Z</time>
      </trkpt>
      <trkpt lat="59.9874391" lon="17.7599327">
        <ele>46.2806</ele>
        <time>2012-08-17T12:45:05Z</time>
      </trkpt>
      <trkpt lat="59.9874423" lon="17.759968">
        <ele>45.7999</ele>
        <time>2012-08-17T12:45:06Z</time>
      </trkpt>
      <trkpt lat="59.9874409" lon="17.7601306">
        <ele>43.3966</ele>
        <time>2012-08-17T12:45:11Z</time>
      </trkpt>
      <trkpt lat="59.9874618" lon="17.7602831">
        <ele>41.474</ele>
        <time>2012-08-17T12:45:15Z</time>
      </trkpt>
      <trkpt lat="59.9874703" lon="17.7604756">
        <ele>40.5128</ele>
        <time>2012-08-17T12:45:19Z</time>
      </trkpt>
      <trkpt lat="59.9874692" lon="17.7608011">
        <ele>39.5513</ele>
        <time>2012-08-17T12:45:25Z</time>
      </trkpt>
      <trkpt lat="59.9875103" lon="17.761053">
        <ele>39.0707</ele>
        <time>2012-08-17T12:45:31Z</time>
      </trkpt>
      <trkpt lat="59.9875722" lon="17.7613006">
        <ele>38.5901</ele>
        <time>2012-08-17T12:45:36Z</time>
      </trkpt>
      <trkpt lat="59.9876428" lon="17.7615273">
        <ele>38.5901</ele>
        <time>2012-08-17T12:45:41Z</time>
      </trkpt>
      <trkpt lat="59.9877594" lon="17.7617468">
        <ele>38.5901</ele>
        <time>2012-08-17T12:45:47Z</time>
      </trkpt>
      <trkpt lat="59.9878889" lon="17.7618506">
        <ele>39.5513</ele>
        <time>2012-08-17T12:45:53Z</time>
      </trkpt>
      <trkpt lat="59.9879321" lon="17.7618758">
        <ele>39.5513</ele>
        <time>2012-08-17T12:45:55Z</time>
      </trkpt>
      <trkpt lat="59.9880733" lon="17.761958">
        <ele>41.474</ele>
        <time>2012-08-17T12:46:01Z</time>
      </trkpt>
      <trkpt lat="59.9881763" lon="17.7619804">
        <ele>43.3966</ele>
        <time>2012-08-17T12:46:05Z</time>
      </trkpt>
      <trkpt lat="59.9882212" lon="17.7619932">
        <ele>44.358</ele>
        <time>2012-08-17T12:46:07Z</time>
      </trkpt>
      <trkpt lat="59.988296" lon="17.7619628">
        <ele>47.2418</ele>
        <time>2012-08-17T12:46:11Z</time>
      </trkpt>
      <trkpt lat="59.9884356" lon="17.7620411">
        <ele>48.684</ele>
        <time>2012-08-17T12:46:17Z</time>
      </trkpt>
      <trkpt lat="59.9885947" lon="17.7622054">
        <ele>48.684</ele>
        <time>2012-08-17T12:46:24Z</time>
      </trkpt>
      <trkpt lat="59.9887073" lon="17.7623102">
        <ele>48.684</ele>
        <time>2012-08-17T12:46:29Z</time>
      </trkpt>
      <trkpt lat="59.9888104" lon="17.7624121">
        <ele>48.684</ele>
        <time>2012-08-17T12:46:34Z</time>
      </trkpt>
      <trkpt lat="59.9889506" lon="17.762472">
        <ele>49.1646</ele>
        <time>2012-08-17T12:46:40Z</time>
      </trkpt>
      <trkpt lat="59.9890703" lon="17.7624489">
        <ele>53.4905</ele>
        <time>2012-08-17T12:46:45Z</time>
      </trkpt>
      <trkpt lat="59.9892077" lon="17.762371">
        <ele>57.8165</ele>
        <time>2012-08-17T12:46:50Z</time>
      </trkpt>
      <trkpt lat="59.9893444" lon="17.7623047">
        <ele>61.6617</ele>
        <time>2012-08-17T12:46:55Z</time>
      </trkpt>
      <trkpt lat="59.989428" lon="17.7623006">
        <ele>62.6229</ele>
        <time>2012-08-17T12:46:59Z</time>
      </trkpt>
      <trkpt lat="59.9895563" lon="17.7623408">
        <ele>61.181</ele>
        <time>2012-08-17T12:47:04Z</time>
      </trkpt>
      <trkpt lat="59.9895942" lon="17.7623726">
        <ele>59.7391</ele>
        <time>2012-08-17T12:47:06Z</time>
      </trkpt>
      <trkpt lat="59.9896826" lon="17.7624984">
        <ele>60.2197</ele>
        <time>2012-08-17T12:47:12Z</time>
      </trkpt>
      <trkpt lat="59.9898215" lon="17.7626086">
        <ele>59.2584</ele>
        <time>2012-08-17T12:47:18Z</time>
      </trkpt>
      <trkpt lat="59.9899353" lon="17.7627047">
        <ele>56.8551</ele>
        <time>2012-08-17T12:47:24Z</time>
      </trkpt>
      <trkpt lat="59.9900366" lon="17.7627739">
        <ele>56.8551</ele>
        <time>2012-08-17T12:47:28Z</time>
      </trkpt>
      <trkpt lat="59.9901299" lon="17.7628497">
        <ele>54.9324</ele>
        <time>2012-08-17T12:47:33Z</time>
      </trkpt>
      <trkpt lat="59.9902638" lon="17.7630204">
        <ele>53.9712</ele>
        <time>2012-08-17T12:47:40Z</time>
      </trkpt>
      <trkpt lat="59.990394" lon="17.7631952">
        <ele>49.6453</ele>
        <time>2012-08-17T12:47:46Z</time>
      </trkpt>
      <trkpt lat="59.9905701" lon="17.7633558">
        <ele>52.5292</ele>
        <time>2012-08-17T12:47:52Z</time>
      </trkpt>
      <trkpt lat="59.9906855" lon="17.7634809">
        <ele>51.5679</ele>
        <time>2012-08-17T12:47:57Z</time>
      </trkpt>
      <trkpt lat="59.9907679" lon="17.7635947">
        <ele>49.6453</ele>
        <time>2012-08-17T12:48:01Z</time>
      </trkpt>
      <trkpt lat="59.9908636" lon="17.7637184">
        <ele>49.1646</ele>
        <time>2012-08-17T12:48:06Z</time>
      </trkpt>
      <trkpt lat="59.9909856" lon="17.763854">
        <ele>51.5679</ele>
        <time>2012-08-17T12:48:12Z</time>
      </trkpt>
      <trkpt lat="59.9910667" lon="17.7639629">
        <ele>53.0098</ele>
        <time>2012-08-17T12:48:16Z</time>
      </trkpt>
      <trkpt lat="59.9912057" lon="17.7641628">
        <ele>59.2584</ele>
        <time>2012-08-17T12:48:22Z</time>
      </trkpt>
      <trkpt lat="59.9912963" lon="17.7643779">
        <ele>61.181</ele>
        <time>2012-08-17T12:48:27Z</time>
      </trkpt>
      <trkpt lat="59.991347" lon="17.7645901">
        <ele>60.2197</ele>
        <time>2012-08-17T12:48:32Z</time>
      </trkpt>
      <trkpt lat="59.9914077" lon="17.7648019">
        <ele>57.3358</ele>
        <time>2012-08-17T12:48:37Z</time>
      </trkpt>
      <trkpt lat="59.9914868" lon="17.7649231">
        <ele>55.8938</ele>
        <time>2012-08-17T12:48:41Z</time>
      </trkpt>
      <trkpt lat="59.9915035" lon="17.7649606">
        <ele>54.4518</ele>
        <time>2012-08-17T12:48:43Z</time>
      </trkpt>
      <trkpt lat="59.9915688" lon="17.7649368">
        <ele>53.4905</ele>
        <time>2012-08-17T12:48:47Z</time>
      </trkpt>
      <trkpt lat="59.9916843" lon="17.764804">
        <ele>50.126</ele>
        <time>2012-08-17T12:48:54Z</time>
      </trkpt>
      <trkpt lat="59.9917677" lon="17.7646905">
        <ele>48.2034</ele>
        <time>2012-08-17T12:48:59Z</time>
      </trkpt>
      <trkpt lat="59.9919023" lon="17.7645064">
        <ele>46.2806</ele>
        <time>2012-08-17T12:49:06Z</time>
      </trkpt>
      <trkpt lat="59.9919153" lon="17.7644654">
        <ele>46.2806</ele>
        <time>2012-08-17T12:49:07Z</time>
      </trkpt>
      <trkpt lat="59.9919792" lon="17.764317">
        <ele>45.7999</ele>
        <time>2012-08-17T12:49:11Z</time>
      </trkpt>
      <trkpt lat="59.9920775" lon="17.7641187">
        <ele>46.7612</ele>
        <time>2012-08-17T12:49:17Z</time>
      </trkpt>
      <trkpt lat="59.9921975" lon="17.7639405">
        <ele>47.2418</ele>
        <time>2012-08-17T12:49:23Z</time>
      </trkpt>
      <trkpt lat="59.9922903" lon="17.7637765">
        <ele>46.7612</ele>
        <time>2012-08-17T12:49:28Z</time>
      </trkpt>
      <trkpt lat="59.9923098" lon="17.7637479">
        <ele>46.2806</ele>
        <time>2012-08-17T12:49:29Z</time>
      </trkpt>
      <trkpt lat="59.9924402" lon="17.7636054">
        <ele>45.7999</ele>
        <time>2012-08-17T12:49:35Z</time>
      </trkpt>
      <trkpt lat="59.9925187" lon="17.763423">
        <ele>42.916</ele>
        <time>2012-08-17T12:49:40Z</time>
      </trkpt>
      <trkpt lat="59.9926115" lon="17.7631461">
        <ele>41.9547</ele>
        <time>2012-08-17T12:49:46Z</time>
      </trkpt>
      <trkpt lat="59.9926495" lon="17.7628989">
        <ele>45.7999</ele>
        <time>2012-08-17T12:49:50Z</time>
      </trkpt>
      <trkpt lat="59.9926861" lon="17.7626376">
        <ele>47.7225</ele>
        <time>2012-08-17T12:49:55Z</time>
      </trkpt>
      <trkpt lat="59.9927066" lon="17.7624007">
        <ele>48.684</ele>
        <time>2012-08-17T12:50:00Z</time>
      </trkpt>
      <trkpt lat="59.9927096" lon="17.76223">
        <ele>49.6453</ele>
        <time>2012-08-17T12:50:04Z</time>
      </trkpt>
      <trkpt lat="59.9927213" lon="17.7619903">
        <ele>51.0872</ele>
        <time>2012-08-17T12:50:09Z</time>
      </trkpt>
      <trkpt lat="59.992725" lon="17.7618967">
        <ele>51.0872</ele>
        <time>2012-08-17T12:50:11Z</time>
      </trkpt>
      <trkpt lat="59.9927417" lon="17.7616977">
        <ele>50.126</ele>
        <time>2012-08-17T12:50:16Z</time>
      </trkpt>
      <trkpt lat="59.9927574" lon="17.7614978">
        <ele>49.6453</ele>
        <time>2012-08-17T12:50:21Z</time>
      </trkpt>
      <trkpt lat="59.9927716" lon="17.7612846">
        <ele>50.126</ele>
        <time>2012-08-17T12:50:26Z</time>
      </trkpt>
      <trkpt lat="59.9927777" lon="17.7611863">
        <ele>50.126</ele>
        <time>2012-08-17T12:50:28Z</time>
      </trkpt>
      <trkpt lat="59.9927897" lon="17.7610518">
        <ele>50.6066</ele>
        <time>2012-08-17T12:50:31Z</time>
      </trkpt>
      <trkpt lat="59.9927992" lon="17.7608181">
        <ele>51.5679</ele>
        <time>2012-08-17T12:50:36Z</time>
      </trkpt>
      <trkpt lat="59.9928177" lon="17.7605818">
        <ele>51.5679</ele>
        <time>2012-08-17T12:50:41Z</time>
      </trkpt>
      <trkpt lat="59.9928312" lon="17.760333">
        <ele>52.0486</ele>
        <time>2012-08-17T12:50:46Z</time>
      </trkpt>
      <trkpt lat="59.9928317" lon="17.7600637">
        <ele>52.0486</ele>
        <time>2012-08-17T12:50:52Z</time>
      </trkpt>
      <trkpt lat="59.9928404" lon="17.7598287">
        <ele>53.9712</ele>
        <time>2012-08-17T12:50:57Z</time>
      </trkpt>
      <trkpt lat="59.992838" lon="17.7597835">
        <ele>53.9712</ele>
        <time>2012-08-17T12:50:58Z</time>
      </trkpt>
      <trkpt lat="59.9928227" lon="17.7596438">
        <ele>53.4905</ele>
        <time>2012-08-17T12:51:01Z</time>
      </trkpt>
      <trkpt lat="59.9927881" lon="17.7593776">
        <ele>54.4518</ele>
        <time>2012-08-17T12:51:07Z</time>
      </trkpt>
      <trkpt lat="59.992758" lon="17.7591572">
        <ele>54.4518</ele>
        <time>2012-08-17T12:51:12Z</time>
      </trkpt>
      <trkpt lat="59.9927152" lon="17.7589196">
        <ele>53.4905</ele>
        <time>2012-08-17T12:51:17Z</time>
      </trkpt>
      <trkpt lat="59.9926903" lon="17.7587594">
        <ele>53.9712</ele>
        <time>2012-08-17T12:51:21Z</time>
      </trkpt>
      <trkpt lat="59.9926685" lon="17.7585756">
        <ele>53.9712</ele>
        <time>2012-08-17T12:51:25Z</time>
      </trkpt>
      <trkpt lat="59.9926457" lon="17.758377">
        <ele>53.4905</ele>
        <time>2012-08-17T12:51:29Z</time>
      </trkpt>
      <trkpt lat="59.9926326" lon="17.7582892">
        <ele>54.4518</ele>
        <time>2012-08-17T12:51:31Z</time>
      </trkpt>
      <trkpt lat="59.9925805" lon="17.758103">
        <ele>53.4905</ele>
        <time>2012-08-17T12:51:36Z</time>
      </trkpt>
      <trkpt lat="59.9925598" lon="17.7579829">
        <ele>52.0486</ele>
        <time>2012-08-17T12:51:39Z</time>
      </trkpt>
      <trkpt lat="59.9925554" lon="17.7579312">
        <ele>52.0486</ele>
        <time>2012-08-17T12:51:40Z</time>
      </trkpt>
      <trkpt lat="59.9925353" lon="17.7577453">
        <ele>50.6066</ele>
        <time>2012-08-17T12:51:44Z</time>
      </trkpt>
      <trkpt lat="59.9925029" lon="17.7575965">
        <ele>50.6066</ele>
        <time>2012-08-17T12:51:47Z</time>
      </trkpt>
      <trkpt lat="59.9924829" lon="17.7574277">
        <ele>49.6453</ele>
        <time>2012-08-17T12:51:51Z</time>
      </trkpt>
      <trkpt lat="59.9924468" lon="17.7571588">
        <ele>46.7612</ele>
        <time>2012-08-17T12:51:58Z</time>
      </trkpt>
      <trkpt lat="59.9924156" lon="17.7569214">
        <ele>43.8773</ele>
        <time>2012-08-17T12:52:04Z</time>
      </trkpt>
      <trkpt lat="59.9924085" lon="17.7568461">
        <ele>43.8773</ele>
        <time>2012-08-17T12:52:06Z</time>
      </trkpt>
      <trkpt lat="59.9923181" lon="17.756559">
        <ele>48.684</ele>
        <time>2012-08-17T12:52:13Z</time>
      </trkpt>
      <trkpt lat="59.9922602" lon="17.7563019">
        <ele>48.2034</ele>
        <time>2012-08-17T12:52:19Z</time>
      </trkpt>
      <trkpt lat="59.9922317" lon="17.7560793">
        <ele>47.7225</ele>
        <time>2012-08-17T12:52:25Z</time>
      </trkpt>
      <trkpt lat="59.9921988" lon="17.7558652">
        <ele>47.2418</ele>
        <time>2012-08-17T12:52:30Z</time>
      </trkpt>
      <trkpt lat="59.9921567" lon="17.7556825">
        <ele>46.7612</ele>
        <time>2012-08-17T12:52:35Z</time>
      </trkpt>
      <trkpt lat="59.9921252" lon="17.7555274">
        <ele>46.2806</ele>
        <time>2012-08-17T12:52:39Z</time>
      </trkpt>
      <trkpt lat="59.9921054" lon="17.755319">
        <ele>45.3192</ele>
        <time>2012-08-17T12:52:44Z</time>
      </trkpt>
      <trkpt lat="59.9920925" lon="17.7552083">
        <ele>43.8773</ele>
        <time>2012-08-17T12:52:47Z</time>
      </trkpt>
      <trkpt lat="59.9920857" lon="17.7551686">
        <ele>43.3966</ele>
        <time>2012-08-17T12:52:48Z</time>
      </trkpt>
      <trkpt lat="59.9920416" lon="17.7549961">
        <ele>44.358</ele>
        <time>2012-08-17T12:52:53Z</time>
      </trkpt>
      <trkpt lat="59.9919857" lon="17.7547827">
        <ele>46.2806</ele>
        <time>2012-08-17T12:52:57Z</time>
      </trkpt>
      <trkpt lat="59.9919043" lon="17.7545045">
        <ele>51.0872</ele>
        <time>2012-08-17T12:53:03Z</time>
      </trkpt>
      <trkpt lat="59.9918636" lon="17.7542466">
        <ele>50.126</ele>
        <time>2012-08-17T12:53:08Z</time>
      </trkpt>
      <trkpt lat="59.9918217" lon="17.7540724">
        <ele>49.1646</ele>
        <time>2012-08-17T12:53:12Z</time>
      </trkpt>
      <trkpt lat="59.9917898" lon="17.7539068">
        <ele>48.684</ele>
        <time>2012-08-17T12:53:16Z</time>
      </trkpt>
      <trkpt lat="59.9917603" lon="17.7536856">
        <ele>44.8386</ele>
        <time>2012-08-17T12:53:21Z</time>
      </trkpt>
      <trkpt lat="59.9917312" lon="17.7534852">
        <ele>41.474</ele>
        <time>2012-08-17T12:53:26Z</time>
      </trkpt>
      <trkpt lat="59.9916951" lon="17.7533012">
        <ele>40.0321</ele>
        <time>2012-08-17T12:53:31Z</time>
      </trkpt>
      <trkpt lat="59.9916927" lon="17.7531024">
        <ele>38.1094</ele>
        <time>2012-08-17T12:53:36Z</time>
      </trkpt>
      <trkpt lat="59.991674" lon="17.7529679">
        <ele>37.1481</ele>
        <time>2012-08-17T12:53:39Z</time>
      </trkpt>
      <trkpt lat="59.9916307" lon="17.752773">
        <ele>39.5513</ele>
        <time>2012-08-17T12:53:43Z</time>
      </trkpt>
      <trkpt lat="59.9915824" lon="17.7526014">
        <ele>41.474</ele>
        <time>2012-08-17T12:53:47Z</time>
      </trkpt>
      <trkpt lat="59.9915575" lon="17.7524069">
        <ele>40.5128</ele>
        <time>2012-08-17T12:53:52Z</time>
      </trkpt>
      <trkpt lat="59.991518" lon="17.7521857">
        <ele>38.1094</ele>
        <time>2012-08-17T12:53:57Z</time>
      </trkpt>
      <trkpt lat="59.9914314" lon="17.7519987">
        <ele>42.4354</ele>
        <time>2012-08-17T12:54:02Z</time>
      </trkpt>
      <trkpt lat="59.9913849" lon="17.7518151">
        <ele>44.358</ele>
        <time>2012-08-17T12:54:06Z</time>
      </trkpt>
      <trkpt lat="59.9913051" lon="17.7516031">
        <ele>47.2418</ele>
        <time>2012-08-17T12:54:11Z</time>
      </trkpt>
      <trkpt lat="59.9912531" lon="17.7514338">
        <ele>49.1646</ele>
        <time>2012-08-17T12:54:15Z</time>
      </trkpt>
      <trkpt lat="59.9912093" lon="17.7511799">
        <ele>51.5679</ele>
        <time>2012-08-17T12:54:20Z</time>
      </trkpt>
      <trkpt lat="59.991188" lon="17.7509795">
        <ele>52.5292</ele>
        <time>2012-08-17T12:54:24Z</time>
      </trkpt>
      <trkpt lat="59.991189" lon="17.750696">
        <ele>54.9324</ele>
        <time>2012-08-17T12:54:30Z</time>
      </trkpt>
      <trkpt lat="59.9911849" lon="17.7505811">
        <ele>56.3745</ele>
        <time>2012-08-17T12:54:33Z</time>
      </trkpt>
      <trkpt lat="59.9911901" lon="17.7502993">
        <ele>57.8165</ele>
        <time>2012-08-17T12:54:38Z</time>
      </trkpt>
      <trkpt lat="59.9911992" lon="17.7501189">
        <ele>58.7777</ele>
        <time>2012-08-17T12:54:42Z</time>
      </trkpt>
      <trkpt lat="59.9912163" lon="17.7498886">
        <ele>58.2971</ele>
        <time>2012-08-17T12:54:47Z</time>
      </trkpt>
      <trkpt lat="59.9912165" lon="17.7497071">
        <ele>58.7777</ele>
        <time>2012-08-17T12:54:51Z</time>
      </trkpt>
      <trkpt lat="59.9912229" lon="17.7494914">
        <ele>58.7777</ele>
        <time>2012-08-17T12:54:55Z</time>
      </trkpt>
      <trkpt lat="59.9912243" lon="17.7493817">
        <ele>57.8165</ele>
        <time>2012-08-17T12:54:57Z</time>
      </trkpt>
      <trkpt lat="59.9912372" lon="17.749188">
        <ele>57.8165</ele>
        <time>2012-08-17T12:55:01Z</time>
      </trkpt>
      <trkpt lat="59.9912558" lon="17.7490226">
        <ele>55.4131</ele>
        <time>2012-08-17T12:55:04Z</time>
      </trkpt>
      <trkpt lat="59.9912953" lon="17.7487434">
        <ele>54.9324</ele>
        <time>2012-08-17T12:55:11Z</time>
      </trkpt>
      <trkpt lat="59.9913176" lon="17.748563">
        <ele>56.8551</ele>
        <time>2012-08-17T12:55:15Z</time>
      </trkpt>
      <trkpt lat="59.9913574" lon="17.7483406">
        <ele>59.7391</ele>
        <time>2012-08-17T12:55:20Z</time>
      </trkpt>
      <trkpt lat="59.9914046" lon="17.7480222">
        <ele>61.6617</ele>
        <time>2012-08-17T12:55:27Z</time>
      </trkpt>
      <trkpt lat="59.9914324" lon="17.7477611">
        <ele>63.1036</ele>
        <time>2012-08-17T12:55:33Z</time>
      </trkpt>
      <trkpt lat="59.9914661" lon="17.7474806">
        <ele>65.0264</ele>
        <time>2012-08-17T12:55:39Z</time>
      </trkpt>
      <trkpt lat="59.9914962" lon="17.7472603">
        <ele>65.9877</ele>
        <time>2012-08-17T12:55:44Z</time>
      </trkpt>
      <trkpt lat="59.9915242" lon="17.7470636">
        <ele>65.9877</ele>
        <time>2012-08-17T12:55:48Z</time>
      </trkpt>
      <trkpt lat="59.9915367" lon="17.7468779">
        <ele>66.4683</ele>
        <time>2012-08-17T12:55:52Z</time>
      </trkpt>
      <trkpt lat="59.9915679" lon="17.7465894">
        <ele>67.9103</ele>
        <time>2012-08-17T12:55:58Z</time>
      </trkpt>
      <trkpt lat="59.9916003" lon="17.7463455">
        <ele>67.4297</ele>
        <time>2012-08-17T12:56:03Z</time>
      </trkpt>
      <trkpt lat="59.9916364" lon="17.7461339">
        <ele>68.3909</ele>
        <time>2012-08-17T12:56:08Z</time>
      </trkpt>
      <trkpt lat="59.9916703" lon="17.7459026">
        <ele>67.9103</ele>
        <time>2012-08-17T12:56:13Z</time>
      </trkpt>
      <trkpt lat="59.9916905" lon="17.7456694">
        <ele>67.9103</ele>
        <time>2012-08-17T12:56:18Z</time>
      </trkpt>
      <trkpt lat="59.9917162" lon="17.7454091">
        <ele>66.4683</ele>
        <time>2012-08-17T12:56:23Z</time>
      </trkpt>
      <trkpt lat="59.9917499" lon="17.7451761">
        <ele>65.9877</ele>
        <time>2012-08-17T12:56:28Z</time>
      </trkpt>
      <trkpt lat="59.991777" lon="17.7449411">
        <ele>65.5071</ele>
        <time>2012-08-17T12:56:33Z</time>
      </trkpt>
      <trkpt lat="59.9918082" lon="17.7447754">
        <ele>65.5071</ele>
        <time>2012-08-17T12:56:37Z</time>
      </trkpt>
      <trkpt lat="59.9918702" lon="17.7445229">
        <ele>65.9877</ele>
        <time>2012-08-17T12:56:43Z</time>
      </trkpt>
      <trkpt lat="59.9919667" lon="17.7442942">
        <ele>64.5457</ele>
        <time>2012-08-17T12:56:49Z</time>
      </trkpt>
      <trkpt lat="59.9920449" lon="17.7441261">
        <ele>64.0651</ele>
        <time>2012-08-17T12:56:54Z</time>
      </trkpt>
      <trkpt lat="59.9921246" lon="17.7440169">
        <ele>63.1036</ele>
        <time>2012-08-17T12:56:58Z</time>
      </trkpt>
      <trkpt lat="59.9921759" lon="17.7438694">
        <ele>63.5844</ele>
        <time>2012-08-17T12:57:02Z</time>
      </trkpt>
      <trkpt lat="59.9922261" lon="17.7437422">
        <ele>63.5844</ele>
        <time>2012-08-17T12:57:06Z</time>
      </trkpt>
      <trkpt lat="59.9923109" lon="17.7435319">
        <ele>62.6229</ele>
        <time>2012-08-17T12:57:11Z</time>
      </trkpt>
      <trkpt lat="59.992367" lon="17.7433884">
        <ele>61.6617</ele>
        <time>2012-08-17T12:57:15Z</time>
      </trkpt>
      <trkpt lat="59.9924302" lon="17.7431636">
        <ele>61.181</ele>
        <time>2012-08-17T12:57:21Z</time>
      </trkpt>
      <trkpt lat="59.9924701" lon="17.7429126">
        <ele>61.181</ele>
        <time>2012-08-17T12:57:26Z</time>
      </trkpt>
      <trkpt lat="59.9925089" lon="17.7427204">
        <ele>62.6229</ele>
        <time>2012-08-17T12:57:30Z</time>
      </trkpt>
      <trkpt lat="59.9925723" lon="17.7424029">
        <ele>66.949</ele>
        <time>2012-08-17T12:57:37Z</time>
      </trkpt>
      <trkpt lat="59.9926064" lon="17.7422288">
        <ele>68.3909</ele>
        <time>2012-08-17T12:57:41Z</time>
      </trkpt>
      <trkpt lat="59.9926503" lon="17.7420028">
        <ele>68.3909</ele>
        <time>2012-08-17T12:57:46Z</time>
      </trkpt>
      <trkpt lat="59.9926937" lon="17.741768">
        <ele>66.949</ele>
        <time>2012-08-17T12:57:51Z</time>
      </trkpt>
      <trkpt lat="59.9927246" lon="17.7415246">
        <ele>67.9103</ele>
        <time>2012-08-17T12:57:56Z</time>
      </trkpt>
      <trkpt lat="59.9927456" lon="17.7413265">
        <ele>66.4683</ele>
        <time>2012-08-17T12:58:00Z</time>
      </trkpt>
      <trkpt lat="59.9927451" lon="17.7411264">
        <ele>65.9877</ele>
        <time>2012-08-17T12:58:05Z</time>
      </trkpt>
      <trkpt lat="59.992727" lon="17.7409724">
        <ele>65.0264</ele>
        <time>2012-08-17T12:58:08Z</time>
      </trkpt>
      <trkpt lat="59.992701" lon="17.7407597">
        <ele>63.5844</ele>
        <time>2012-08-17T12:58:13Z</time>
      </trkpt>
      <trkpt lat="59.9926844" lon="17.7406038">
        <ele>61.181</ele>
        <time>2012-08-17T12:58:16Z</time>
      </trkpt>
      <trkpt lat="59.9926758" lon="17.7405438">
        <ele>60.2197</ele>
        <time>2012-08-17T12:58:18Z</time>
      </trkpt>
      <trkpt lat="59.9926513" lon="17.7402909">
        <ele>58.7777</ele>
        <time>2012-08-17T12:58:24Z</time>
      </trkpt>
      <trkpt lat="59.992645" lon="17.7400408">
        <ele>56.3745</ele>
        <time>2012-08-17T12:58:30Z</time>
      </trkpt>
      <trkpt lat="59.9926271" lon="17.7398344">
        <ele>54.9324</ele>
        <time>2012-08-17T12:58:35Z</time>
      </trkpt>
      <trkpt lat="59.9926241" lon="17.7397931">
        <ele>54.4518</ele>
        <time>2012-08-17T12:58:36Z</time>
      </trkpt>
      <trkpt lat="59.992583" lon="17.7395977">
        <ele>57.3358</ele>
        <time>2012-08-17T12:58:41Z</time>
      </trkpt>
      <trkpt lat="59.992567" lon="17.7395082">
        <ele>59.2584</ele>
        <time>2012-08-17T12:58:43Z</time>
      </trkpt>
      <trkpt lat="59.9925312" lon="17.739278">
        <ele>62.6229</ele>
        <time>2012-08-17T12:58:48Z</time>
      </trkpt>
      <trkpt lat="59.992495" lon="17.7390806">
        <ele>64.0651</ele>
        <time>2012-08-17T12:58:52Z</time>
      </trkpt>
      <trkpt lat="59.992478" lon="17.7389104">
        <ele>64.5457</ele>
        <time>2012-08-17T12:58:56Z</time>
      </trkpt>
      <trkpt lat="59.9924447" lon="17.7386876">
        <ele>65.0264</ele>
        <time>2012-08-17T12:59:01Z</time>
      </trkpt>
      <trkpt lat="59.9924316" lon="17.7384602">
        <ele>63.1036</ele>
        <time>2012-08-17T12:59:06Z</time>
      </trkpt>
      <trkpt lat="59.9924105" lon="17.7382132">
        <ele>61.6617</ele>
        <time>2012-08-17T12:59:11Z</time>
      </trkpt>
      <trkpt lat="59.9923945" lon="17.738023">
        <ele>60.7003</ele>
        <time>2012-08-17T12:59:15Z</time>
      </trkpt>
      <trkpt lat="59.9923495" lon="17.7377571">
        <ele>61.181</ele>
        <time>2012-08-17T12:59:20Z</time>
      </trkpt>
      <trkpt lat="59.9922562" lon="17.737583">
        <ele>59.2584</ele>
        <time>2012-08-17T12:59:26Z</time>
      </trkpt>
      <trkpt lat="59.992122" lon="17.7376014">
        <ele>55.8938</ele>
        <time>2012-08-17T12:59:31Z</time>
      </trkpt>
      <trkpt lat="59.9920053" lon="17.7376423">
        <ele>54.4518</ele>
        <time>2012-08-17T12:59:37Z</time>
      </trkpt>
      <trkpt lat="59.9919417" lon="17.737647">
        <ele>52.0486</ele>
        <time>2012-08-17T12:59:41Z</time>
      </trkpt>
      <trkpt lat="59.9918656" lon="17.7376542">
        <ele>49.6453</ele>
        <time>2012-08-17T12:59:44Z</time>
      </trkpt>
      <trkpt lat="59.9917672" lon="17.7376552">
        <ele>48.684</ele>
        <time>2012-08-17T12:59:48Z</time>
      </trkpt>
      <trkpt lat="59.9916606" lon="17.737651">
        <ele>48.684</ele>
        <time>2012-08-17T12:59:53Z</time>
      </trkpt>
      <trkpt lat="59.9915252" lon="17.7376588">
        <ele>49.6453</ele>
        <time>2012-08-17T12:59:58Z</time>
      </trkpt>
      <trkpt lat="59.9913831" lon="17.7376935">
        <ele>49.1646</ele>
        <time>2012-08-17T13:00:04Z</time>
      </trkpt>
      <trkpt lat="59.9912228" lon="17.7377605">
        <ele>47.7225</ele>
        <time>2012-08-17T13:00:11Z</time>
      </trkpt>
      <trkpt lat="59.9911988" lon="17.737774">
        <ele>47.7225</ele>
        <time>2012-08-17T13:00:12Z</time>
      </trkpt>
      <trkpt lat="59.9911207" lon="17.7378661">
        <ele>47.2418</ele>
        <time>2012-08-17T13:00:16Z</time>
      </trkpt>
      <trkpt lat="59.9909625" lon="17.7379286">
        <ele>47.2418</ele>
        <time>2012-08-17T13:00:22Z</time>
      </trkpt>
      <trkpt lat="59.9908112" lon="17.7380081">
        <ele>48.684</ele>
        <time>2012-08-17T13:00:29Z</time>
      </trkpt>
      <trkpt lat="59.9906674" lon="17.7380356">
        <ele>49.6453</ele>
        <time>2012-08-17T13:00:36Z</time>
      </trkpt>
      <trkpt lat="59.9905519" lon="17.7381128">
        <ele>49.6453</ele>
        <time>2012-08-17T13:00:41Z</time>
      </trkpt>
      <trkpt lat="59.9905276" lon="17.738119">
        <ele>49.6453</ele>
        <time>2012-08-17T13:00:42Z</time>
      </trkpt>
      <trkpt lat="59.9903485" lon="17.7382134">
        <ele>48.2034</ele>
        <time>2012-08-17T13:00:49Z</time>
      </trkpt>
      <trkpt lat="59.9902157" lon="17.7382469">
        <ele>50.6066</ele>
        <time>2012-08-17T13:00:54Z</time>
      </trkpt>
      <trkpt lat="59.9900635" lon="17.7382567">
        <ele>51.5679</ele>
        <time>2012-08-17T13:01:00Z</time>
      </trkpt>
      <trkpt lat="59.9900158" lon="17.7382804">
        <ele>51.5679</ele>
        <time>2012-08-17T13:01:02Z</time>
      </trkpt>
      <trkpt lat="59.9898827" lon="17.7383528">
        <ele>49.6453</ele>
        <time>2012-08-17T13:01:07Z</time>
      </trkpt>
      <trkpt lat="59.989776" lon="17.7383623">
        <ele>49.6453</ele>
        <time>2012-08-17T13:01:12Z</time>
      </trkpt>
      <trkpt lat="59.9896721" lon="17.738397">
        <ele>49.6453</ele>
        <time>2012-08-17T13:01:16Z</time>
      </trkpt>
      <trkpt lat="59.9895133" lon="17.738453">
        <ele>50.126</ele>
        <time>2012-08-17T13:01:23Z</time>
      </trkpt>
      <trkpt lat="59.9893915" lon="17.7385426">
        <ele>49.6453</ele>
        <time>2012-08-17T13:01:28Z</time>
      </trkpt>
      <trkpt lat="59.9892958" lon="17.7386281">
        <ele>50.6066</ele>
        <time>2012-08-17T13:01:32Z</time>
      </trkpt>
      <trkpt lat="59.9892248" lon="17.7386663">
        <ele>50.6066</ele>
        <time>2012-08-17T13:01:35Z</time>
      </trkpt>
      <trkpt lat="59.9891181" lon="17.7387152">
        <ele>50.6066</ele>
        <time>2012-08-17T13:01:40Z</time>
      </trkpt>
      <trkpt lat="59.9890456" lon="17.738757">
        <ele>50.126</ele>
        <time>2012-08-17T13:01:43Z</time>
      </trkpt>
      <trkpt lat="59.9889273" lon="17.7388208">
        <ele>50.6066</ele>
        <time>2012-08-17T13:01:49Z</time>
      </trkpt>
      <trkpt lat="59.9888231" lon="17.7389337">
        <ele>51.5679</ele>
        <time>2012-08-17T13:01:54Z</time>
      </trkpt>
      <trkpt lat="59.9888004" lon="17.7389493">
        <ele>51.5679</ele>
        <time>2012-08-17T13:01:55Z</time>
      </trkpt>
      <trkpt lat="59.9886995" lon="17.739043">
        <ele>52.5292</ele>
        <time>2012-08-17T13:01:59Z</time>
      </trkpt>
      <trkpt lat="59.9885792" lon="17.7391301">
        <ele>53.9712</ele>
        <time>2012-08-17T13:02:04Z</time>
      </trkpt>
      <trkpt lat="59.9884548" lon="17.7391869">
        <ele>53.9712</ele>
        <time>2012-08-17T13:02:09Z</time>
      </trkpt>
      <trkpt lat="59.9883365" lon="17.7392163">
        <ele>53.4905</ele>
        <time>2012-08-17T13:02:14Z</time>
      </trkpt>
      <trkpt lat="59.9882131" lon="17.7392539">
        <ele>53.0098</ele>
        <time>2012-08-17T13:02:19Z</time>
      </trkpt>
      <trkpt lat="59.9880639" lon="17.7392724">
        <ele>51.5679</ele>
        <time>2012-08-17T13:02:25Z</time>
      </trkpt>
      <trkpt lat="59.9880386" lon="17.739276">
        <ele>51.0872</ele>
        <time>2012-08-17T13:02:26Z</time>
      </trkpt>
      <trkpt lat="59.9878852" lon="17.7393078">
        <ele>52.0486</ele>
        <time>2012-08-17T13:02:32Z</time>
      </trkpt>
      <trkpt lat="59.9877995" lon="17.7392997">
        <ele>51.0872</ele>
        <time>2012-08-17T13:02:36Z</time>
      </trkpt>
      <trkpt lat="59.9876001" lon="17.7393621">
        <ele>50.126</ele>
        <time>2012-08-17T13:02:43Z</time>
      </trkpt>
      <trkpt lat="59.9875289" lon="17.739376">
        <ele>49.6453</ele>
        <time>2012-08-17T13:02:46Z</time>
      </trkpt>
      <trkpt lat="59.9873821" lon="17.7394169">
        <ele>49.1646</ele>
        <time>2012-08-17T13:02:52Z</time>
      </trkpt>
      <trkpt lat="59.9872135" lon="17.739413">
        <ele>50.126</ele>
        <time>2012-08-17T13:02:58Z</time>
      </trkpt>
      <trkpt lat="59.9870515" lon="17.7393564">
        <ele>51.0872</ele>
        <time>2012-08-17T13:03:04Z</time>
      </trkpt>
      <trkpt lat="59.9869994" lon="17.7393346">
        <ele>51.0872</ele>
        <time>2012-08-17T13:03:06Z</time>
      </trkpt>
      <trkpt lat="59.986868" lon="17.7392039">
        <ele>52.0486</ele>
        <time>2012-08-17T13:03:12Z</time>
      </trkpt>
      <trkpt lat="59.9867607" lon="17.7390891">
        <ele>51.5679</ele>
        <time>2012-08-17T13:03:17Z</time>
      </trkpt>
      <trkpt lat="59.9866461" lon="17.7390015">
        <ele>53.0098</ele>
        <time>2012-08-17T13:03:22Z</time>
      </trkpt>
      <trkpt lat="59.9865487" lon="17.7389052">
        <ele>52.5292</ele>
        <time>2012-08-17T13:03:26Z</time>
      </trkpt>
      <trkpt lat="59.986446" lon="17.7388368">
        <ele>52.5292</ele>
        <time>2012-08-17T13:03:30Z</time>
      </trkpt>
      <trkpt lat="59.9862994" lon="17.738734">
        <ele>51.5679</ele>
        <time>2012-08-17T13:03:36Z</time>
      </trkpt>
      <trkpt lat="59.9861862" lon="17.7386693">
        <ele>52.5292</ele>
        <time>2012-08-17T13:03:40Z</time>
      </trkpt>
      <trkpt lat="59.986078" lon="17.7385693">
        <ele>51.5679</ele>
        <time>2012-08-17T13:03:45Z</time>
      </trkpt>
      <trkpt lat="59.9859834" lon="17.7385097">
        <ele>51.5679</ele>
        <time>2012-08-17T13:03:49Z</time>
      </trkpt>
      <trkpt lat="59.9858971" lon="17.7384779">
        <ele>51.0872</ele>
        <time>2012-08-17T13:03:53Z</time>
      </trkpt>
      <trkpt lat="59.9858764" lon="17.7384753">
        <ele>51.0872</ele>
        <time>2012-08-17T13:03:54Z</time>
      </trkpt>
      <trkpt lat="59.9857167" lon="17.7383555">
        <ele>50.6066</ele>
        <time>2012-08-17T13:04:01Z</time>
      </trkpt>
      <trkpt lat="59.9856261" lon="17.7383098">
        <ele>50.126</ele>
        <time>2012-08-17T13:04:05Z</time>
      </trkpt>
      <trkpt lat="59.9855324" lon="17.7382198">
        <ele>47.7225</ele>
        <time>2012-08-17T13:04:10Z</time>
      </trkpt>
      <trkpt lat="59.9853755" lon="17.7381727">
        <ele>45.7999</ele>
        <time>2012-08-17T13:04:17Z</time>
      </trkpt>
      <trkpt lat="59.9853532" lon="17.7381712">
        <ele>45.3192</ele>
        <time>2012-08-17T13:04:18Z</time>
      </trkpt>
      <trkpt lat="59.9852095" lon="17.7381861">
        <ele>45.7999</ele>
        <time>2012-08-17T13:04:23Z</time>
      </trkpt>
      <trkpt lat="59.9850916" lon="17.7381587">
        <ele>46.7612</ele>
        <time>2012-08-17T13:04:27Z</time>
      </trkpt>
      <trkpt lat="59.9849588" lon="17.7381075">
        <ele>47.2418</ele>
        <time>2012-08-17T13:04:32Z</time>
      </trkpt>
      <trkpt lat="59.9848293" lon="17.7380877">
        <ele>46.2806</ele>
        <time>2012-08-17T13:04:37Z</time>
      </trkpt>
      <trkpt lat="59.9846555" lon="17.738054">
        <ele>49.6453</ele>
        <time>2012-08-17T13:04:43Z</time>
      </trkpt>
      <trkpt lat="59.984557" lon="17.7380044">
        <ele>50.126</ele>
        <time>2012-08-17T13:04:47Z</time>
      </trkpt>
      <trkpt lat="59.9844415" lon="17.7379628">
        <ele>48.684</ele>
        <time>2012-08-17T13:04:51Z</time>
      </trkpt>
      <trkpt lat="59.9843252" lon="17.737955">
        <ele>48.684</ele>
        <time>2012-08-17T13:04:56Z</time>
      </trkpt>
      <trkpt lat="59.9841954" lon="17.7379597">
        <ele>48.2034</ele>
        <time>2012-08-17T13:05:01Z</time>
      </trkpt>
      <trkpt lat="59.9840866" lon="17.7379364">
        <ele>48.684</ele>
        <time>2012-08-17T13:05:06Z</time>
      </trkpt>
      <trkpt lat="59.9839958" lon="17.7379482">
        <ele>48.2034</ele>
        <time>2012-08-17T13:05:10Z</time>
      </trkpt>
      <trkpt lat="59.9838914" lon="17.7379841">
        <ele>46.7612</ele>
        <time>2012-08-17T13:05:15Z</time>
      </trkpt>
      <trkpt lat="59.9837773" lon="17.738009">
        <ele>45.7999</ele>
        <time>2012-08-17T13:05:21Z</time>
      </trkpt>
      <trkpt lat="59.9837339" lon="17.7380337">
        <ele>46.2806</ele>
        <time>2012-08-17T13:05:23Z</time>
      </trkpt>
      <trkpt lat="59.9836096" lon="17.738051">
        <ele>45.7999</ele>
        <time>2012-08-17T13:05:28Z</time>
      </trkpt>
      <trkpt lat="59.9834163" lon="17.7381349">
        <ele>46.7612</ele>
        <time>2012-08-17T13:05:34Z</time>
      </trkpt>
      <trkpt lat="59.983298" lon="17.7381841">
        <ele>46.7612</ele>
        <time>2012-08-17T13:05:39Z</time>
      </trkpt>
      <trkpt lat="59.9831707" lon="17.7381923">
        <ele>45.7999</ele>
        <time>2012-08-17T13:05:44Z</time>
      </trkpt>
      <trkpt lat="59.9830447" lon="17.7381722">
        <ele>46.2806</ele>
        <time>2012-08-17T13:05:49Z</time>
      </trkpt>
      <trkpt lat="59.9829135" lon="17.7381567">
        <ele>45.7999</ele>
        <time>2012-08-17T13:05:54Z</time>
      </trkpt>
      <trkpt lat="59.9827818" lon="17.7381467">
        <ele>45.7999</ele>
        <time>2012-08-17T13:05:59Z</time>
      </trkpt>
      <trkpt lat="59.9826678" lon="17.7381639">
        <ele>46.7612</ele>
        <time>2012-08-17T13:06:04Z</time>
      </trkpt>
      <trkpt lat="59.9825653" lon="17.7381443">
        <ele>46.2806</ele>
        <time>2012-08-17T13:06:08Z</time>
      </trkpt>
      <trkpt lat="59.9824264" lon="17.7381608">
        <ele>46.2806</ele>
        <time>2012-08-17T13:06:13Z</time>
      </trkpt>
      <trkpt lat="59.9822589" lon="17.738196">
        <ele>45.7999</ele>
        <time>2012-08-17T13:06:20Z</time>
      </trkpt>
      <trkpt lat="59.9821217" lon="17.7382782">
        <ele>45.7999</ele>
        <time>2012-08-17T13:06:26Z</time>
      </trkpt>
      <trkpt lat="59.9820233" lon="17.7383212">
        <ele>46.7612</ele>
        <time>2012-08-17T13:06:31Z</time>
      </trkpt>
      <trkpt lat="59.981928" lon="17.7383612">
        <ele>46.7612</ele>
        <time>2012-08-17T13:06:35Z</time>
      </trkpt>
      <trkpt lat="59.9818114" lon="17.7384156">
        <ele>47.7225</ele>
        <time>2012-08-17T13:06:40Z</time>
      </trkpt>
      <trkpt lat="59.981669" lon="17.7384823">
        <ele>46.7612</ele>
        <time>2012-08-17T13:06:46Z</time>
      </trkpt>
      <trkpt lat="59.9815814" lon="17.7384839">
        <ele>47.2418</ele>
        <time>2012-08-17T13:06:50Z</time>
      </trkpt>
      <trkpt lat="59.9814831" lon="17.7385017">
        <ele>46.2806</ele>
        <time>2012-08-17T13:06:55Z</time>
      </trkpt>
      <trkpt lat="59.9814033" lon="17.7385281">
        <ele>44.8386</ele>
        <time>2012-08-17T13:06:59Z</time>
      </trkpt>
      <trkpt lat="59.9813843" lon="17.7385353">
        <ele>44.358</ele>
        <time>2012-08-17T13:07:00Z</time>
      </trkpt>
      <trkpt lat="59.9812473" lon="17.7385493">
        <ele>41.474</ele>
        <time>2012-08-17T13:07:06Z</time>
      </trkpt>
      <trkpt lat="59.981133" lon="17.7385913">
        <ele>40.0321</ele>
        <time>2012-08-17T13:07:10Z</time>
      </trkpt>
      <trkpt lat="59.9809589" lon="17.7386308">
        <ele>37.1481</ele>
        <time>2012-08-17T13:07:16Z</time>
      </trkpt>
      <trkpt lat="59.9808143" lon="17.7386742">
        <ele>34.7449</ele>
        <time>2012-08-17T13:07:22Z</time>
      </trkpt>
      <trkpt lat="59.9807591" lon="17.7386864">
        <ele>35.2255</ele>
        <time>2012-08-17T13:07:24Z</time>
      </trkpt>
      <trkpt lat="59.9806143" lon="17.738726">
        <ele>35.7061</ele>
        <time>2012-08-17T13:07:30Z</time>
      </trkpt>
      <trkpt lat="59.9805714" lon="17.7387306">
        <ele>35.7061</ele>
        <time>2012-08-17T13:07:32Z</time>
      </trkpt>
      <trkpt lat="59.9804773" lon="17.7387493">
        <ele>36.1868</ele>
        <time>2012-08-17T13:07:36Z</time>
      </trkpt>
      <trkpt lat="59.9802915" lon="17.7387859">
        <ele>36.1868</ele>
        <time>2012-08-17T13:07:43Z</time>
      </trkpt>
      <trkpt lat="59.9801571" lon="17.7387682">
        <ele>36.1868</ele>
        <time>2012-08-17T13:07:48Z</time>
      </trkpt>
      <trkpt lat="59.9800199" lon="17.7387741">
        <ele>36.1868</ele>
        <time>2012-08-17T13:07:53Z</time>
      </trkpt>
      <trkpt lat="59.9798624" lon="17.7388202">
        <ele>36.6675</ele>
        <time>2012-08-17T13:07:59Z</time>
      </trkpt>
      <trkpt lat="59.9797244" lon="17.7388798">
        <ele>37.6287</ele>
        <time>2012-08-17T13:08:04Z</time>
      </trkpt>
      <trkpt lat="59.9795955" lon="17.7389788">
        <ele>39.0707</ele>
        <time>2012-08-17T13:08:09Z</time>
      </trkpt>
      <trkpt lat="59.9794829" lon="17.7390275">
        <ele>40.0321</ele>
        <time>2012-08-17T13:08:14Z</time>
      </trkpt>
      <trkpt lat="59.9794546" lon="17.7390511">
        <ele>40.5128</ele>
        <time>2012-08-17T13:08:15Z</time>
      </trkpt>
    </trkseg>
  </trk>
</gpx>